sensor_id;sensor_type;location;lat;lon;timestamp;P1;durP1;ratioP1;P2;durP2;ratioP2
54539;SDS011;40438;52.992;18.604;2023-08-07T00:00:05;1.40;;;1.08;;
54539;SDS011;40438;52.992;18.604;2023-08-07T00:02:31;2.78;;;1.20;;
54539;SDS011;40438;52.992;18.604;2023-08-07T00:04:57;1.45;;;1.15;;
54539;SDS011;40438;52.992;18.604;2023-08-07T00:07:24;2.42;;;1.10;;
54539;SDS011;40438;52.992;18.604;2023-08-07T00:09:50;1.10;;;1.00;;
54539;SDS011;40438;52.992;18.604;2023-08-07T00:12:16;3.10;;;1.27;;
54539;SDS011;40438;52.992;18.604;2023-08-07T00:14:42;1.27;;;1.17;;
54539;SDS011;40438;52.992;18.604;2023-08-07T00:17:07;2.58;;;1.38;;
54539;SDS011;40438;52.992;18.604;2023-08-07T00:19:33;1.42;;;1.10;;
54539;SDS011;40438;52.992;18.604;2023-08-07T00:21:59;1.17;;;1.08;;
54539;SDS011;40438;52.992;18.604;2023-08-07T00:24:26;1.23;;;1.00;;
54539;SDS011;40438;52.992;18.604;2023-08-07T00:26:52;1.75;;;1.20;;
54539;SDS011;40438;52.992;18.604;2023-08-07T00:29:18;1.20;;;1.10;;
54539;SDS011;40438;52.992;18.604;2023-08-07T00:31:44;1.02;;;0.90;;
54539;SDS011;40438;52.992;18.604;2023-08-07T00:34:10;2.53;;;1.30;;
54539;SDS011;40438;52.992;18.604;2023-08-07T00:36:36;1.65;;;1.33;;
54539;SDS011;40438;52.992;18.604;2023-08-07T00:39:02;2.08;;;1.25;;
54539;SDS011;40438;52.992;18.604;2023-08-07T00:41:29;2.08;;;1.25;;
54539;SDS011;40438;52.992;18.604;2023-08-07T00:43:55;2.28;;;1.40;;
54539;SDS011;40438;52.992;18.604;2023-08-07T00:46:21;2.17;;;1.35;;
54539;SDS011;40438;52.992;18.604;2023-08-07T00:48:47;2.20;;;1.50;;
54539;SDS011;40438;52.992;18.604;2023-08-07T00:51:13;4.38;;;1.50;;
54539;SDS011;40438;52.992;18.604;2023-08-07T00:53:40;2.88;;;1.70;;
54539;SDS011;40438;52.992;18.604;2023-08-07T00:56:06;1.58;;;1.42;;
54539;SDS011;40438;52.992;18.604;2023-08-07T00:58:34;1.80;;;1.45;;
54539;SDS011;40438;52.992;18.604;2023-08-07T01:01:02;3.10;;;1.58;;
54539;SDS011;40438;52.992;18.604;2023-08-07T01:03:28;1.58;;;1.38;;
54539;SDS011;40438;52.992;18.604;2023-08-07T01:05:53;3.72;;;1.40;;
54539;SDS011;40438;52.992;18.604;2023-08-07T01:08:19;1.67;;;1.40;;
54539;SDS011;40438;52.992;18.604;2023-08-07T01:10:49;2.10;;;1.40;;
54539;SDS011;40438;52.992;18.604;2023-08-07T01:13:28;2.38;;;1.13;;
54539;SDS011;40438;52.992;18.604;2023-08-07T01:16:01;1.10;;;1.00;;
54539;SDS011;40438;52.992;18.604;2023-08-07T01:18:29;1.65;;;1.30;;
54539;SDS011;40438;52.992;18.604;2023-08-07T01:20:56;2.40;;;1.40;;
54539;SDS011;40438;52.992;18.604;2023-08-07T01:23:24;3.85;;;1.20;;
54539;SDS011;40438;52.992;18.604;2023-08-07T01:25:49;1.27;;;0.85;;
54539;SDS011;40438;52.992;18.604;2023-08-07T01:28:19;1.20;;;1.10;;
54539;SDS011;40438;52.992;18.604;2023-08-07T01:30:53;1.42;;;1.10;;
54539;SDS011;40438;52.992;18.604;2023-08-07T01:33:24;0.88;;;0.85;;
54539;SDS011;40438;52.992;18.604;2023-08-07T01:35:53;0.98;;;0.82;;
54539;SDS011;40438;52.992;18.604;2023-08-07T01:38:21;0.73;;;0.73;;
54539;SDS011;40438;52.992;18.604;2023-08-07T01:40:50;1.00;;;0.90;;
54539;SDS011;40438;52.992;18.604;2023-08-07T01:43:18;0.70;;;0.70;;
54539;SDS011;40438;52.992;18.604;2023-08-07T01:45:44;1.08;;;0.98;;
54539;SDS011;40438;52.992;18.604;2023-08-07T01:48:10;0.77;;;0.68;;
54539;SDS011;40438;52.992;18.604;2023-08-07T01:50:37;1.08;;;1.02;;
54539;SDS011;40438;52.992;18.604;2023-08-07T01:53:03;1.38;;;0.93;;
54539;SDS011;40438;52.992;18.604;2023-08-07T01:55:31;2.10;;;0.93;;
54539;SDS011;40438;52.992;18.604;2023-08-07T01:57:57;0.77;;;0.77;;
54539;SDS011;40438;52.992;18.604;2023-08-07T02:00:23;1.05;;;0.80;;
54539;SDS011;40438;52.992;18.604;2023-08-07T02:02:48;0.98;;;0.73;;
54539;SDS011;40438;52.992;18.604;2023-08-07T02:05:14;1.20;;;0.75;;
54539;SDS011;40438;52.992;18.604;2023-08-07T02:07:41;2.15;;;1.00;;
54539;SDS011;40438;52.992;18.604;2023-08-07T02:10:07;1.17;;;0.88;;
54539;SDS011;40438;52.992;18.604;2023-08-07T02:12:36;1.05;;;0.80;;
54539;SDS011;40438;52.992;18.604;2023-08-07T02:15:03;0.70;;;0.70;;
54539;SDS011;40438;52.992;18.604;2023-08-07T02:17:29;0.80;;;0.80;;
54539;SDS011;40438;52.992;18.604;2023-08-07T02:19:56;1.95;;;0.73;;
54539;SDS011;40438;52.992;18.604;2023-08-07T02:22:21;0.80;;;0.80;;
54539;SDS011;40438;52.992;18.604;2023-08-07T02:24:48;0.80;;;0.80;;
54539;SDS011;40438;52.992;18.604;2023-08-07T02:27:14;0.85;;;0.80;;
54539;SDS011;40438;52.992;18.604;2023-08-07T02:29:41;0.75;;;0.75;;
54539;SDS011;40438;52.992;18.604;2023-08-07T02:32:07;0.65;;;0.65;;
54539;SDS011;40438;52.992;18.604;2023-08-07T02:34:33;0.93;;;0.93;;
54539;SDS011;40438;52.992;18.604;2023-08-07T02:36:59;0.60;;;0.60;;
54539;SDS011;40438;52.992;18.604;2023-08-07T02:39:25;1.17;;;0.65;;
54539;SDS011;40438;52.992;18.604;2023-08-07T02:41:50;2.65;;;0.80;;
54539;SDS011;40438;52.992;18.604;2023-08-07T02:44:16;2.33;;;0.80;;
54539;SDS011;40438;52.992;18.604;2023-08-07T02:46:44;3.00;;;0.63;;
54539;SDS011;40438;52.992;18.604;2023-08-07T02:49:09;0.82;;;0.82;;
54539;SDS011;40438;52.992;18.604;2023-08-07T02:51:36;0.60;;;0.60;;
54539;SDS011;40438;52.992;18.604;2023-08-07T02:54:02;0.90;;;0.90;;
54539;SDS011;40438;52.992;18.604;2023-08-07T02:56:28;0.70;;;0.70;;
54539;SDS011;40438;52.992;18.604;2023-08-07T02:58:53;1.00;;;0.70;;
54539;SDS011;40438;52.992;18.604;2023-08-07T03:01:19;1.25;;;0.68;;
54539;SDS011;40438;52.992;18.604;2023-08-07T03:03:47;0.57;;;0.57;;
54539;SDS011;40438;52.992;18.604;2023-08-07T03:06:12;1.33;;;1.00;;
54539;SDS011;40438;52.992;18.604;2023-08-07T03:08:38;0.68;;;0.68;;
54539;SDS011;40438;52.992;18.604;2023-08-07T03:11:04;0.93;;;0.90;;
54539;SDS011;40438;52.992;18.604;2023-08-07T03:13:30;1.40;;;1.02;;
54539;SDS011;40438;52.992;18.604;2023-08-07T03:15:59;0.60;;;0.60;;
54539;SDS011;40438;52.992;18.604;2023-08-07T03:18:25;1.35;;;0.75;;
54539;SDS011;40438;52.992;18.604;2023-08-07T03:20:53;0.90;;;0.90;;
54539;SDS011;40438;52.992;18.604;2023-08-07T03:23:19;0.70;;;0.70;;
54539;SDS011;40438;52.992;18.604;2023-08-07T03:25:44;0.70;;;0.70;;
54539;SDS011;40438;52.992;18.604;2023-08-07T03:28:10;0.80;;;0.80;;
54539;SDS011;40438;52.992;18.604;2023-08-07T03:30:36;1.35;;;1.00;;
54539;SDS011;40438;52.992;18.604;2023-08-07T03:33:02;2.15;;;0.75;;
54539;SDS011;40438;52.992;18.604;2023-08-07T03:35:28;1.83;;;0.65;;
54539;SDS011;40438;52.992;18.604;2023-08-07T03:37:55;1.95;;;1.08;;
54539;SDS011;40438;52.992;18.604;2023-08-07T03:40:21;1.13;;;0.93;;
54539;SDS011;40438;52.992;18.604;2023-08-07T03:42:47;1.38;;;0.90;;
54539;SDS011;40438;52.992;18.604;2023-08-07T03:45:13;0.98;;;0.80;;
54539;SDS011;40438;52.992;18.604;2023-08-07T03:47:39;0.88;;;0.80;;
54539;SDS011;40438;52.992;18.604;2023-08-07T03:50:05;1.23;;;1.10;;
54539;SDS011;40438;52.992;18.604;2023-08-07T03:52:32;1.45;;;0.98;;
54539;SDS011;40438;52.992;18.604;2023-08-07T03:55:00;1.10;;;0.90;;
54539;SDS011;40438;52.992;18.604;2023-08-07T03:57:25;0.75;;;0.75;;
54539;SDS011;40438;52.992;18.604;2023-08-07T03:59:51;4.55;;;1.00;;
54539;SDS011;40438;52.992;18.604;2023-08-07T04:02:17;1.73;;;1.00;;
54539;SDS011;40438;52.992;18.604;2023-08-07T04:04:44;2.20;;;0.90;;
54539;SDS011;40438;52.992;18.604;2023-08-07T04:07:09;1.55;;;0.88;;
54539;SDS011;40438;52.992;18.604;2023-08-07T04:09:35;0.88;;;0.80;;
54539;SDS011;40438;52.992;18.604;2023-08-07T04:12:03;0.90;;;0.70;;
54539;SDS011;40438;52.992;18.604;2023-08-07T04:14:30;1.42;;;1.15;;
54539;SDS011;40438;52.992;18.604;2023-08-07T04:16:55;1.45;;;0.80;;
54539;SDS011;40438;52.992;18.604;2023-08-07T04:19:21;1.27;;;0.95;;
54539;SDS011;40438;52.992;18.604;2023-08-07T04:21:47;2.00;;;1.05;;
54539;SDS011;40438;52.992;18.604;2023-08-07T04:24:13;1.25;;;0.80;;
54539;SDS011;40438;52.992;18.604;2023-08-07T04:26:38;1.42;;;1.00;;
54539;SDS011;40438;52.992;18.604;2023-08-07T04:29:06;1.45;;;0.88;;
54539;SDS011;40438;52.992;18.604;2023-08-07T04:31:32;0.90;;;0.77;;
54539;SDS011;40438;52.992;18.604;2023-08-07T04:33:58;2.47;;;1.00;;
54539;SDS011;40438;52.992;18.604;2023-08-07T04:36:23;1.48;;;1.17;;
54539;SDS011;40438;52.992;18.604;2023-08-07T04:38:49;0.82;;;0.82;;
54539;SDS011;40438;52.992;18.604;2023-08-07T04:41:15;1.13;;;0.80;;
54539;SDS011;40438;52.992;18.604;2023-08-07T04:43:41;1.10;;;1.00;;
54539;SDS011;40438;52.992;18.604;2023-08-07T04:46:09;1.83;;;1.05;;
54539;SDS011;40438;52.992;18.604;2023-08-07T04:48:34;1.00;;;0.80;;
54539;SDS011;40438;52.992;18.604;2023-08-07T04:51:00;0.95;;;0.88;;
54539;SDS011;40438;52.992;18.604;2023-08-07T04:53:26;2.50;;;0.80;;
54539;SDS011;40438;52.992;18.604;2023-08-07T04:55:52;3.05;;;1.10;;
54539;SDS011;40438;52.992;18.604;2023-08-07T04:58:18;1.20;;;0.98;;
54539;SDS011;40438;52.992;18.604;2023-08-07T05:00:43;2.10;;;1.05;;
54539;SDS011;40438;52.992;18.604;2023-08-07T05:03:11;6.43;;;0.93;;
54539;SDS011;40438;52.992;18.604;2023-08-07T05:05:36;1.05;;;1.00;;
54539;SDS011;40438;52.992;18.604;2023-08-07T05:08:02;2.95;;;1.00;;
54539;SDS011;40438;52.992;18.604;2023-08-07T05:10:28;2.60;;;1.20;;
54539;SDS011;40438;52.992;18.604;2023-08-07T05:12:54;1.30;;;1.20;;
54539;SDS011;40438;52.992;18.604;2023-08-07T05:15:20;1.70;;;0.82;;
54539;SDS011;40438;52.992;18.604;2023-08-07T05:17:46;5.28;;;1.10;;
54539;SDS011;40438;52.992;18.604;2023-08-07T05:20:13;1.63;;;1.10;;
54539;SDS011;40438;52.992;18.604;2023-08-07T05:22:39;3.03;;;0.98;;
54539;SDS011;40438;52.992;18.604;2023-08-07T05:25:05;1.20;;;1.10;;
54539;SDS011;40438;52.992;18.604;2023-08-07T05:27:31;4.00;;;1.15;;
54539;SDS011;40438;52.992;18.604;2023-08-07T05:29:57;1.60;;;1.20;;
54539;SDS011;40438;52.992;18.604;2023-08-07T05:32:22;1.08;;;0.93;;
54539;SDS011;40438;52.992;18.604;2023-08-07T05:34:48;2.38;;;1.15;;
54539;SDS011;40438;52.992;18.604;2023-08-07T05:37:15;1.10;;;1.00;;
54539;SDS011;40438;52.992;18.604;2023-08-07T05:39:41;1.77;;;1.10;;
54539;SDS011;40438;52.992;18.604;2023-08-07T05:42:07;1.02;;;0.93;;
54539;SDS011;40438;52.992;18.604;2023-08-07T05:44:33;1.65;;;1.25;;
54539;SDS011;40438;52.992;18.604;2023-08-07T05:46:59;1.98;;;1.20;;
54539;SDS011;40438;52.992;18.604;2023-08-07T05:49:24;1.17;;;1.08;;
54539;SDS011;40438;52.992;18.604;2023-08-07T05:51:50;2.00;;;1.40;;
54539;SDS011;40438;52.992;18.604;2023-08-07T05:54:17;2.42;;;1.60;;
54539;SDS011;40438;52.992;18.604;2023-08-07T05:56:43;4.45;;;1.40;;
54539;SDS011;40438;52.992;18.604;2023-08-07T05:59:09;1.88;;;1.40;;
54539;SDS011;40438;52.992;18.604;2023-08-07T06:01:35;2.75;;;1.05;;
54539;SDS011;40438;52.992;18.604;2023-08-07T06:04:00;2.53;;;1.50;;
54539;SDS011;40438;52.992;18.604;2023-08-07T06:06:26;1.60;;;1.27;;
54539;SDS011;40438;52.992;18.604;2023-08-07T06:08:52;2.65;;;1.50;;
54539;SDS011;40438;52.992;18.604;2023-08-07T06:11:19;2.63;;;1.52;;
54539;SDS011;40438;52.992;18.604;2023-08-07T06:13:45;1.65;;;1.27;;
54539;SDS011;40438;52.992;18.604;2023-08-07T06:16:11;1.73;;;1.30;;
54539;SDS011;40438;52.992;18.604;2023-08-07T06:18:37;1.95;;;1.35;;
54539;SDS011;40438;52.992;18.604;2023-08-07T06:21:02;1.77;;;1.30;;
54539;SDS011;40438;52.992;18.604;2023-08-07T06:23:28;1.88;;;1.10;;
54539;SDS011;40438;52.992;18.604;2023-08-07T06:25:54;2.17;;;1.20;;
54539;SDS011;40438;52.992;18.604;2023-08-07T06:28:21;1.65;;;1.27;;
54539;SDS011;40438;52.992;18.604;2023-08-07T06:30:47;2.42;;;1.20;;
54539;SDS011;40438;52.992;18.604;2023-08-07T06:33:13;4.10;;;1.40;;
54539;SDS011;40438;52.992;18.604;2023-08-07T06:35:39;1.77;;;1.38;;
54539;SDS011;40438;52.992;18.604;2023-08-07T06:38:05;2.05;;;1.52;;
54539;SDS011;40438;52.992;18.604;2023-08-07T06:40:30;2.83;;;1.45;;
54539;SDS011;40438;52.992;18.604;2023-08-07T06:42:56;3.60;;;1.65;;
54539;SDS011;40438;52.992;18.604;2023-08-07T06:45:24;4.68;;;1.40;;
54539;SDS011;40438;52.992;18.604;2023-08-07T06:47:49;5.22;;;1.70;;
54539;SDS011;40438;52.992;18.604;2023-08-07T06:50:15;2.00;;;1.58;;
54539;SDS011;40438;52.992;18.604;2023-08-07T06:52:41;2.15;;;1.50;;
54539;SDS011;40438;52.992;18.604;2023-08-07T06:55:07;3.53;;;2.08;;
54539;SDS011;40438;52.992;18.604;2023-08-07T06:57:32;3.40;;;1.58;;
54539;SDS011;40438;52.992;18.604;2023-08-07T06:59:59;3.08;;;1.45;;
54539;SDS011;40438;52.992;18.604;2023-08-07T07:02:26;2.45;;;1.73;;
54539;SDS011;40438;52.992;18.604;2023-08-07T07:04:52;1.80;;;1.38;;
54539;SDS011;40438;52.992;18.604;2023-08-07T07:07:18;2.35;;;1.55;;
54539;SDS011;40438;52.992;18.604;2023-08-07T07:09:44;7.65;;;1.60;;
54539;SDS011;40438;52.992;18.604;2023-08-07T07:12:10;1.75;;;1.48;;
54539;SDS011;40438;52.992;18.604;2023-08-07T07:14:35;1.92;;;1.45;;
54539;SDS011;40438;52.992;18.604;2023-08-07T07:17:01;2.08;;;1.30;;
54539;SDS011;40438;52.992;18.604;2023-08-07T07:19:28;4.93;;;1.58;;
54539;SDS011;40438;52.992;18.604;2023-08-07T07:21:54;2.00;;;1.33;;
54539;SDS011;40438;52.992;18.604;2023-08-07T07:24:20;4.18;;;1.58;;
54539;SDS011;40438;52.992;18.604;2023-08-07T07:26:46;1.73;;;1.40;;
54539;SDS011;40438;52.992;18.604;2023-08-07T07:29:11;1.58;;;1.10;;
54539;SDS011;40438;52.992;18.604;2023-08-07T07:31:37;3.33;;;1.50;;
54539;SDS011;40438;52.992;18.604;2023-08-07T07:34:03;2.30;;;1.17;;
54539;SDS011;40438;52.992;18.604;2023-08-07T07:36:30;2.58;;;1.25;;
54539;SDS011;40438;52.992;18.604;2023-08-07T07:38:56;2.17;;;1.00;;
54539;SDS011;40438;52.992;18.604;2023-08-07T07:41:22;2.47;;;1.48;;
54539;SDS011;40438;52.992;18.604;2023-08-07T07:43:48;9.80;;;1.35;;
54539;SDS011;40438;52.992;18.604;2023-08-07T07:46:13;1.92;;;1.20;;
54539;SDS011;40438;52.992;18.604;2023-08-07T07:48:39;2.17;;;1.23;;
54539;SDS011;40438;52.992;18.604;2023-08-07T07:51:05;7.25;;;1.38;;
54539;SDS011;40438;52.992;18.604;2023-08-07T07:53:32;2.25;;;1.00;;
54539;SDS011;40438;52.992;18.604;2023-08-07T07:55:58;5.78;;;1.10;;
54539;SDS011;40438;52.992;18.604;2023-08-07T07:58:24;2.72;;;1.20;;
54539;SDS011;40438;52.992;18.604;2023-08-07T08:00:50;3.13;;;1.10;;
54539;SDS011;40438;52.992;18.604;2023-08-07T08:03:16;1.83;;;1.30;;
54539;SDS011;40438;52.992;18.604;2023-08-07T08:05:41;1.90;;;1.10;;
54539;SDS011;40438;52.992;18.604;2023-08-07T08:08:07;3.28;;;1.17;;
54539;SDS011;40438;52.992;18.604;2023-08-07T08:10:34;2.30;;;0.90;;
54539;SDS011;40438;52.992;18.604;2023-08-07T08:13:00;1.38;;;0.88;;
54539;SDS011;40438;52.992;18.604;2023-08-07T08:15:27;2.22;;;1.17;;
54539;SDS011;40438;52.992;18.604;2023-08-07T08:17:52;4.75;;;1.10;;
54539;SDS011;40438;52.992;18.604;2023-08-07T08:20:18;2.72;;;1.00;;
54539;SDS011;40438;52.992;18.604;2023-08-07T08:22:44;1.90;;;1.25;;
54539;SDS011;40438;52.992;18.604;2023-08-07T08:25:10;2.17;;;0.82;;
54539;SDS011;40438;52.992;18.604;2023-08-07T08:27:37;2.33;;;1.10;;
54539;SDS011;40438;52.992;18.604;2023-08-07T08:30:03;2.33;;;1.25;;
54539;SDS011;40438;52.992;18.604;2023-08-07T08:32:30;8.65;;;1.00;;
54539;SDS011;40438;52.992;18.604;2023-08-07T08:34:58;1.17;;;1.05;;
54539;SDS011;40438;52.992;18.604;2023-08-07T08:37:24;2.90;;;0.90;;
54539;SDS011;40438;52.992;18.604;2023-08-07T08:39:50;1.75;;;1.05;;
54539;SDS011;40438;52.992;18.604;2023-08-07T08:42:16;1.92;;;1.10;;
54539;SDS011;40438;52.992;18.604;2023-08-07T08:44:43;2.38;;;1.00;;
54539;SDS011;40438;52.992;18.604;2023-08-07T08:47:11;1.55;;;0.90;;
54539;SDS011;40438;52.992;18.604;2023-08-07T08:49:41;3.97;;;0.90;;
54539;SDS011;40438;52.992;18.604;2023-08-07T08:52:11;4.10;;;1.40;;
54539;SDS011;40438;52.992;18.604;2023-08-07T08:54:38;3.03;;;0.75;;
54539;SDS011;40438;52.992;18.604;2023-08-07T08:57:04;1.90;;;0.88;;
54539;SDS011;40438;52.992;18.604;2023-08-07T08:59:31;1.77;;;1.05;;
54539;SDS011;40438;52.992;18.604;2023-08-07T09:01:59;2.35;;;1.10;;
54539;SDS011;40438;52.992;18.604;2023-08-07T09:04:25;2.15;;;1.20;;
54539;SDS011;40438;52.992;18.604;2023-08-07T09:06:51;4.43;;;1.42;;
54539;SDS011;40438;52.992;18.604;2023-08-07T09:09:17;3.17;;;1.00;;
54539;SDS011;40438;52.992;18.604;2023-08-07T09:11:45;3.55;;;1.10;;
54539;SDS011;40438;52.992;18.604;2023-08-07T09:14:14;2.35;;;1.00;;
54539;SDS011;40438;52.992;18.604;2023-08-07T09:16:41;1.40;;;0.75;;
54539;SDS011;40438;52.992;18.604;2023-08-07T09:19:09;2.85;;;0.90;;
54539;SDS011;40438;52.992;18.604;2023-08-07T09:21:34;5.05;;;1.20;;
54539;SDS011;40438;52.992;18.604;2023-08-07T09:24:00;1.00;;;0.75;;
54539;SDS011;40438;52.992;18.604;2023-08-07T09:26:26;2.92;;;0.90;;
54539;SDS011;40438;52.992;18.604;2023-08-07T09:28:52;1.15;;;0.80;;
54539;SDS011;40438;52.992;18.604;2023-08-07T09:31:18;3.15;;;1.17;;
54539;SDS011;40438;52.992;18.604;2023-08-07T09:33:46;1.92;;;0.90;;
54539;SDS011;40438;52.992;18.604;2023-08-07T09:36:14;1.83;;;1.05;;
54539;SDS011;40438;52.992;18.604;2023-08-07T09:38:40;0.88;;;0.88;;
54539;SDS011;40438;52.992;18.604;2023-08-07T09:41:05;1.42;;;0.98;;
54539;SDS011;40438;52.992;18.604;2023-08-07T09:43:33;4.55;;;0.80;;
54539;SDS011;40438;52.992;18.604;2023-08-07T09:46:02;1.67;;;0.90;;
54539;SDS011;40438;52.992;18.604;2023-08-07T09:48:28;2.50;;;1.10;;
54539;SDS011;40438;52.992;18.604;2023-08-07T09:51:03;1.40;;;0.90;;
54539;SDS011;40438;52.992;18.604;2023-08-07T09:53:31;1.38;;;0.80;;
54539;SDS011;40438;52.992;18.604;2023-08-07T09:55:56;1.35;;;0.65;;
54539;SDS011;40438;52.992;18.604;2023-08-07T09:58:22;0.95;;;0.73;;
54539;SDS011;40438;52.992;18.604;2023-08-07T10:00:49;1.50;;;0.68;;
54539;SDS011;40438;52.992;18.604;2023-08-07T10:03:15;1.42;;;0.50;;
54539;SDS011;40438;52.992;18.604;2023-08-07T10:05:41;1.15;;;0.60;;
54539;SDS011;40438;52.992;18.604;2023-08-07T10:08:07;2.58;;;1.00;;
54539;SDS011;40438;52.992;18.604;2023-08-07T10:10:36;6.07;;;0.82;;
54539;SDS011;40438;52.992;18.604;2023-08-07T10:13:03;1.25;;;0.85;;
54539;SDS011;40438;52.992;18.604;2023-08-07T10:15:29;0.82;;;0.73;;
54539;SDS011;40438;52.992;18.604;2023-08-07T10:17:57;1.67;;;1.00;;
54539;SDS011;40438;52.992;18.604;2023-08-07T10:20:23;2.72;;;0.95;;
54539;SDS011;40438;52.992;18.604;2023-08-07T10:22:51;2.45;;;0.85;;
54539;SDS011;40438;52.992;18.604;2023-08-07T10:25:18;1.05;;;0.82;;
54539;SDS011;40438;52.992;18.604;2023-08-07T10:27:48;3.50;;;1.17;;
54539;SDS011;40438;52.992;18.604;2023-08-07T10:30:16;1.60;;;1.00;;
54539;SDS011;40438;52.992;18.604;2023-08-07T10:32:45;6.72;;;1.30;;
54539;SDS011;40438;52.992;18.604;2023-08-07T10:35:22;1.75;;;1.40;;
54539;SDS011;40438;52.992;18.604;2023-08-07T10:37:49;2.33;;;1.20;;
54539;SDS011;40438;52.992;18.604;2023-08-07T10:40:16;2.90;;;1.08;;
54539;SDS011;40438;52.992;18.604;2023-08-07T10:45:42;2.60;;;1.08;;
54539;SDS011;40438;52.992;18.604;2023-08-07T10:48:08;3.05;;;1.35;;
54539;SDS011;40438;52.992;18.604;2023-08-07T10:50:47;2.33;;;1.30;;
54539;SDS011;40438;52.992;18.604;2023-08-07T10:53:18;4.03;;;1.30;;
54539;SDS011;40438;52.992;18.604;2023-08-07T10:55:45;5.50;;;1.92;;
54539;SDS011;40438;52.992;18.604;2023-08-07T10:58:22;6.60;;;1.92;;
54539;SDS011;40438;52.992;18.604;2023-08-07T11:00:48;5.45;;;2.03;;
54539;SDS011;40438;52.992;18.604;2023-08-07T11:03:19;2.38;;;1.58;;
54539;SDS011;40438;52.992;18.604;2023-08-07T11:05:51;1.35;;;1.10;;
54539;SDS011;40438;52.992;18.604;2023-08-07T11:08:17;3.35;;;1.30;;
54539;SDS011;40438;52.992;18.604;2023-08-07T11:10:47;2.53;;;1.50;;
54539;SDS011;40438;52.992;18.604;2023-08-07T11:13:13;4.00;;;1.67;;
54539;SDS011;40438;52.992;18.604;2023-08-07T11:15:40;2.08;;;1.50;;
54539;SDS011;40438;52.992;18.604;2023-08-07T11:18:06;2.20;;;1.38;;
54539;SDS011;40438;52.992;18.604;2023-08-07T11:20:32;3.47;;;2.00;;
54539;SDS011;40438;52.992;18.604;2023-08-07T11:22:59;3.42;;;1.92;;
54539;SDS011;40438;52.992;18.604;2023-08-07T11:25:26;4.07;;;1.92;;
54539;SDS011;40438;52.992;18.604;2023-08-07T11:27:51;4.65;;;1.67;;
54539;SDS011;40438;52.992;18.604;2023-08-07T11:30:19;2.70;;;1.27;;
54539;SDS011;40438;52.992;18.604;2023-08-07T11:32:46;4.15;;;1.58;;
54539;SDS011;40438;52.992;18.604;2023-08-07T11:35:12;3.00;;;1.40;;
54539;SDS011;40438;52.992;18.604;2023-08-07T11:37:44;2.17;;;1.45;;
54539;SDS011;40438;52.992;18.604;2023-08-07T11:40:11;6.95;;;1.60;;
54539;SDS011;40438;52.992;18.604;2023-08-07T11:42:37;4.90;;;1.40;;
54539;SDS011;40438;52.992;18.604;2023-08-07T11:45:03;2.72;;;1.50;;
54539;SDS011;40438;52.992;18.604;2023-08-07T11:47:29;2.92;;;1.23;;
54539;SDS011;40438;52.992;18.604;2023-08-07T11:49:56;3.47;;;1.50;;
54539;SDS011;40438;52.992;18.604;2023-08-07T11:52:23;2.55;;;1.63;;
54539;SDS011;40438;52.992;18.604;2023-08-07T11:54:49;2.72;;;1.50;;
54539;SDS011;40438;52.992;18.604;2023-08-07T11:57:17;2.38;;;1.67;;
54539;SDS011;40438;52.992;18.604;2023-08-07T11:59:49;2.72;;;1.55;;
54539;SDS011;40438;52.992;18.604;2023-08-07T12:02:15;3.45;;;1.60;;
54539;SDS011;40438;52.992;18.604;2023-08-07T12:04:41;1.80;;;1.30;;
54539;SDS011;40438;52.992;18.604;2023-08-07T12:07:08;1.40;;;1.20;;
54539;SDS011;40438;52.992;18.604;2023-08-07T12:09:34;2.05;;;1.63;;
54539;SDS011;40438;52.992;18.604;2023-08-07T12:12:00;2.03;;;1.38;;
54539;SDS011;40438;52.992;18.604;2023-08-07T12:14:38;7.97;;;1.63;;
54539;SDS011;40438;52.992;18.604;2023-08-07T12:17:04;3.15;;;1.52;;
54539;SDS011;40438;52.992;18.604;2023-08-07T12:19:36;2.05;;;1.52;;
54539;SDS011;40438;52.992;18.604;2023-08-07T12:22:02;2.17;;;1.30;;
54539;SDS011;40438;52.992;18.604;2023-08-07T12:24:31;2.53;;;1.60;;
54539;SDS011;40438;52.992;18.604;2023-08-07T12:26:57;6.07;;;1.70;;
54539;SDS011;40438;52.992;18.604;2023-08-07T12:29:23;4.22;;;1.60;;
54539;SDS011;40438;52.992;18.604;2023-08-07T12:31:50;3.33;;;1.65;;
54539;SDS011;40438;52.992;18.604;2023-08-07T12:34:15;3.80;;;1.50;;
54539;SDS011;40438;52.992;18.604;2023-08-07T12:36:41;4.72;;;1.80;;
54539;SDS011;40438;52.992;18.604;2023-08-07T12:39:07;3.22;;;1.80;;
54539;SDS011;40438;52.992;18.604;2023-08-07T12:41:33;2.83;;;1.75;;
54539;SDS011;40438;52.992;18.604;2023-08-07T12:43:59;4.30;;;1.70;;
54539;SDS011;40438;52.992;18.604;2023-08-07T12:46:24;5.00;;;1.50;;
54539;SDS011;40438;52.992;18.604;2023-08-07T12:48:52;3.33;;;1.40;;
54539;SDS011;40438;52.992;18.604;2023-08-07T12:51:17;2.53;;;1.52;;
54539;SDS011;40438;52.992;18.604;2023-08-07T12:53:43;3.38;;;1.38;;
54539;SDS011;40438;52.992;18.604;2023-08-07T12:56:09;2.67;;;1.20;;
54539;SDS011;40438;52.992;18.604;2023-08-07T12:58:35;3.45;;;1.30;;
54539;SDS011;40438;52.992;18.604;2023-08-07T13:01:00;2.13;;;1.25;;
54539;SDS011;40438;52.992;18.604;2023-08-07T13:03:26;2.78;;;1.50;;
54539;SDS011;40438;52.992;18.604;2023-08-07T13:05:53;3.33;;;1.00;;
54539;SDS011;40438;52.992;18.604;2023-08-07T13:08:19;3.15;;;1.02;;
54539;SDS011;40438;52.992;18.604;2023-08-07T13:10:45;4.28;;;1.30;;
54539;SDS011;40438;52.992;18.604;2023-08-07T13:13:11;2.15;;;1.05;;
54539;SDS011;40438;52.992;18.604;2023-08-07T13:15:36;2.97;;;1.10;;
54539;SDS011;40438;52.992;18.604;2023-08-07T13:18:02;2.97;;;1.15;;
54539;SDS011;40438;52.992;18.604;2023-08-07T13:20:28;1.88;;;1.10;;
54539;SDS011;40438;52.992;18.604;2023-08-07T13:22:55;3.15;;;1.27;;
54539;SDS011;40438;52.992;18.604;2023-08-07T13:25:21;2.08;;;1.05;;
54539;SDS011;40438;52.992;18.604;2023-08-07T13:27:46;2.30;;;1.40;;
54539;SDS011;40438;52.992;18.604;2023-08-07T13:30:12;2.60;;;1.23;;
54539;SDS011;40438;52.992;18.604;2023-08-07T13:32:38;1.83;;;1.20;;
54539;SDS011;40438;52.992;18.604;2023-08-07T13:35:04;3.38;;;1.30;;
54539;SDS011;40438;52.992;18.604;2023-08-07T13:37:31;2.00;;;1.38;;
54539;SDS011;40438;52.992;18.604;2023-08-07T13:39:58;2.78;;;1.33;;
54539;SDS011;40438;52.992;18.604;2023-08-07T13:42:24;2.63;;;1.20;;
54539;SDS011;40438;52.992;18.604;2023-08-07T13:44:50;2.10;;;1.40;;
54539;SDS011;40438;52.992;18.604;2023-08-07T13:47:16;4.30;;;1.65;;
54539;SDS011;40438;52.992;18.604;2023-08-07T13:49:42;3.53;;;1.45;;
54539;SDS011;40438;52.992;18.604;2023-08-07T13:52:07;6.13;;;1.30;;
54539;SDS011;40438;52.992;18.604;2023-08-07T13:54:33;1.92;;;1.30;;
54539;SDS011;40438;52.992;18.604;2023-08-07T13:57:00;3.83;;;1.48;;
54539;SDS011;40438;52.992;18.604;2023-08-07T13:59:26;1.80;;;1.40;;
54539;SDS011;40438;52.992;18.604;2023-08-07T14:01:52;2.50;;;1.30;;
54539;SDS011;40438;52.992;18.604;2023-08-07T14:04:18;2.00;;;1.30;;
54539;SDS011;40438;52.992;18.604;2023-08-07T14:06:43;3.45;;;1.40;;
54539;SDS011;40438;52.992;18.604;2023-08-07T14:09:09;5.05;;;1.52;;
54539;SDS011;40438;52.992;18.604;2023-08-07T14:11:35;2.38;;;1.17;;
54539;SDS011;40438;52.992;18.604;2023-08-07T14:14:03;2.10;;;1.20;;
54539;SDS011;40438;52.992;18.604;2023-08-07T14:16:28;1.30;;;1.20;;
54539;SDS011;40438;52.992;18.604;2023-08-07T14:18:54;2.78;;;1.10;;
54539;SDS011;40438;52.992;18.604;2023-08-07T14:21:20;1.20;;;0.98;;
54539;SDS011;40438;52.992;18.604;2023-08-07T14:23:46;3.40;;;1.25;;
54539;SDS011;40438;52.992;18.604;2023-08-07T14:26:12;3.53;;;1.02;;
54539;SDS011;40438;52.992;18.604;2023-08-07T14:28:38;7.30;;;1.25;;
54539;SDS011;40438;52.992;18.604;2023-08-07T14:31:07;1.83;;;1.13;;